Terminal Aerodrome Forecast
Issued by NWS Bismarck, ND

Home | Current Version | Previous Version | Text Only | Print | Product List | Glossary Off
Versions: 1 2 3 4 5 6 7 8 9 10 11 12 13 14 15 16 17 18 19 20 21 22 23 24 25 26 27

000
FTUS43 KBIS 301732
TAFISN
TAF
KISN 301732Z 3018/0118 14010KT 6SM FU VCTS SCT050CB OVC080
     FM302200 12008KT P6SM VCTS BKN050CB OVC080
     FM010600 08009KT P6SM BKN035 OVC070
     FM011000 36005KT 6SM BR SCT015 OVC025=

USA.gov is the U.S. government's official web portal to all federal, state and local government web resources and services.